Terminal Aerodrome Forecast
Issued by NWS

Home | Current Version | Previous Version | Text Only | Print | Product List | Glossary On
Versions: 1 2 3 4 5 6 7 8 9 10 11 12 13 14 15 16 17 18 19 20 21 22 23 24 25 26 27
000
FTPA31 PHFO 231100 RRA
TAFLNY
TAF
PHNY 231148Z 2312/2412 04007KT P6SM FEW025 SCT035
     FM232000 04012KT P6SM BKN025
     FM240400 05012KT P6SM SCT030
      AMD NOT SKED=

USA.gov is the U.S. government's official web portal to all federal, state and local government web resources and services.